If you wish to contribute or participate in the discussions about articles you are invited to join SKYbrary as a registered user

 Actions

Chico Municipal Airport

From SKYbrary Wiki

KCIC
Airport
ICAO: KCIC – IATA: CIC
Summary
Name Chico Municipal Airport
Region North America
Territory United States US.gif
Location Chico, California
Serving Butte County
Elevation 73.152 m
240 ft73.152 m
Coordinates 39° 47' 56.73" N, 121° 51' 16.82" W
Runways
Designator Length Width Surface ROPS
13L/31R 2049 m6,722.441 ft
46 m150.919 ft
ASP yes/yes
13R/31L 916 m3,005.249 ft
18 m59.055 ft
ASP yes/yes


METAR
Observation KCIC 121547Z 13010KT 09SM BKN012 OVC019 13/11 A3026
Station Chico Municipal
Date/Time 12 December 2019 15:47:00
Wind direction 130°
Wind speed 10 kts
Lowest cloud amount broken clouds
Temperature 13°C
Dew point 11°C
Humidity 87%
QNH hPa
Weather condition n/a

LOS
Tag(s)

Description

Chico Municipal Airport is a public airport located 6 km3.24 nm
6,000 m
19,685.039 ft
north of the central business district of Chico, a city in Butte County, California.

Climatology

Dry-summer subtropical ”Mediterranean" climate (Köppen climate classification Csb) - characterized by warm, dry summers and mild winters.

Maps

Terrain

Loading map...

Airport Layout

Loading map...


Accidents & Serious Incidents at or in vicinity of KCIC

None on SKYbrary